sensor_id;sensor_type;location;lat;lon;timestamp;P1;durP1;ratioP1;P2;durP2;ratioP2
80175;SDS011;75462;42.122;24.736;2024-03-23T00:55:42;0.40;;;0.40;;
80175;SDS011;75462;42.122;24.736;2024-03-23T00:58:08;0.40;;;0.40;;
80175;SDS011;75462;42.122;24.736;2024-03-23T01:00:34;0.50;;;0.50;;
80175;SDS011;75462;42.122;24.736;2024-03-23T01:03:00;0.40;;;0.40;;
80175;SDS011;75462;42.122;24.736;2024-03-23T01:05:26;0.40;;;0.40;;
80175;SDS011;75462;42.122;24.736;2024-03-23T01:07:52;0.40;;;0.40;;
80175;SDS011;75462;42.122;24.736;2024-03-23T01:10:17;0.40;;;0.40;;
80175;SDS011;75462;42.122;24.736;2024-03-23T01:12:43;0.40;;;0.40;;
80175;SDS011;75462;42.122;24.736;2024-03-23T01:15:09;0.40;;;0.40;;
80175;SDS011;75462;42.122;24.736;2024-03-23T01:17:34;0.50;;;0.50;;
80175;SDS011;75462;42.122;24.736;2024-03-23T01:20:00;0.40;;;0.40;;
80175;SDS011;75462;42.122;24.736;2024-03-23T01:22:26;0.50;;;0.50;;
80175;SDS011;75462;42.122;24.736;2024-03-23T01:24:51;0.50;;;0.50;;
80175;SDS011;75462;42.122;24.736;2024-03-23T01:27:17;0.50;;;0.50;;
80175;SDS011;75462;42.122;24.736;2024-03-23T01:29:43;0.40;;;0.40;;
80175;SDS011;75462;42.122;24.736;2024-03-23T01:32:09;0.50;;;0.50;;
80175;SDS011;75462;42.122;24.736;2024-03-23T01:34:34;0.50;;;0.50;;
80175;SDS011;75462;42.122;24.736;2024-03-23T01:37:00;0.50;;;0.50;;
80175;SDS011;75462;42.122;24.736;2024-03-23T01:39:26;0.50;;;0.50;;
80175;SDS011;75462;42.122;24.736;2024-03-23T01:41:52;0.50;;;0.50;;
80175;SDS011;75462;42.122;24.736;2024-03-23T01:44:17;0.50;;;0.50;;
80175;SDS011;75462;42.122;24.736;2024-03-23T01:46:43;0.50;;;0.50;;
80175;SDS011;75462;42.122;24.736;2024-03-23T01:49:09;0.45;;;0.45;;
80175;SDS011;75462;42.122;24.736;2024-03-23T01:51:36;0.50;;;0.50;;
80175;SDS011;75462;42.122;24.736;2024-03-23T01:54:02;0.50;;;0.50;;
80175;SDS011;75462;42.122;24.736;2024-03-23T01:56:29;0.40;;;0.40;;
80175;SDS011;75462;42.122;24.736;2024-03-23T01:58:58;0.50;;;0.50;;
80175;SDS011;75462;42.122;24.736;2024-03-23T02:01:23;0.50;;;0.50;;
80175;SDS011;75462;42.122;24.736;2024-03-23T02:03:49;0.50;;;0.50;;
80175;SDS011;75462;42.122;24.736;2024-03-23T02:06:15;0.50;;;0.50;;
80175;SDS011;75462;42.122;24.736;2024-03-23T02:08:40;0.50;;;0.50;;
80175;SDS011;75462;42.122;24.736;2024-03-23T02:11:06;0.40;;;0.40;;
80175;SDS011;75462;42.122;24.736;2024-03-23T02:13:32;0.50;;;0.50;;
80175;SDS011;75462;42.122;24.736;2024-03-23T02:15:58;0.50;;;0.50;;
80175;SDS011;75462;42.122;24.736;2024-03-23T02:18:23;0.50;;;0.50;;
80175;SDS011;75462;42.122;24.736;2024-03-23T02:20:49;0.50;;;0.50;;
80175;SDS011;75462;42.122;24.736;2024-03-23T02:23:15;0.47;;;0.47;;
80175;SDS011;75462;42.122;24.736;2024-03-23T02:25:41;0.50;;;0.50;;
80175;SDS011;75462;42.122;24.736;2024-03-23T02:28:07;0.50;;;0.50;;
80175;SDS011;75462;42.122;24.736;2024-03-23T02:30:33;0.50;;;0.50;;
80175;SDS011;75462;42.122;24.736;2024-03-23T02:32:59;0.50;;;0.50;;
80175;SDS011;75462;42.122;24.736;2024-03-23T02:35:25;0.50;;;0.50;;
80175;SDS011;75462;42.122;24.736;2024-03-23T02:37:50;0.50;;;0.50;;
80175;SDS011;75462;42.122;24.736;2024-03-23T02:40:16;0.50;;;0.50;;
80175;SDS011;75462;42.122;24.736;2024-03-23T02:42:42;0.50;;;0.50;;
80175;SDS011;75462;42.122;24.736;2024-03-23T02:45:08;0.50;;;0.50;;
80175;SDS011;75462;42.122;24.736;2024-03-23T02:47:34;0.50;;;0.50;;
80175;SDS011;75462;42.122;24.736;2024-03-23T02:50:00;0.50;;;0.50;;
80175;SDS011;75462;42.122;24.736;2024-03-23T02:52:25;0.50;;;0.50;;
80175;SDS011;75462;42.122;24.736;2024-03-23T02:54:51;0.50;;;0.50;;
80175;SDS011;75462;42.122;24.736;2024-03-23T02:57:17;0.50;;;0.50;;
80175;SDS011;75462;42.122;24.736;2024-03-23T02:59:43;0.50;;;0.50;;
80175;SDS011;75462;42.122;24.736;2024-03-23T03:02:08;0.50;;;0.50;;
80175;SDS011;75462;42.122;24.736;2024-03-23T03:04:34;0.50;;;0.50;;
80175;SDS011;75462;42.122;24.736;2024-03-23T03:07:01;0.40;;;0.40;;
80175;SDS011;75462;42.122;24.736;2024-03-23T03:09:27;0.50;;;0.50;;
80175;SDS011;75462;42.122;24.736;2024-03-23T03:11:52;0.50;;;0.50;;
80175;SDS011;75462;42.122;24.736;2024-03-23T03:14:18;0.50;;;0.50;;
80175;SDS011;75462;42.122;24.736;2024-03-23T03:16:44;0.50;;;0.50;;
80175;SDS011;75462;42.122;24.736;2024-03-23T03:19:10;0.50;;;0.50;;
80175;SDS011;75462;42.122;24.736;2024-03-23T03:21:36;0.50;;;0.50;;
80175;SDS011;75462;42.122;24.736;2024-03-23T03:24:02;0.50;;;0.50;;
80175;SDS011;75462;42.122;24.736;2024-03-23T03:26:28;0.47;;;0.47;;
80175;SDS011;75462;42.122;24.736;2024-03-23T03:28:54;0.60;;;0.60;;
80175;SDS011;75462;42.122;24.736;2024-03-23T03:31:20;0.45;;;0.45;;
80175;SDS011;75462;42.122;24.736;2024-03-23T03:33:46;0.50;;;0.50;;
80175;SDS011;75462;42.122;24.736;2024-03-23T03:36:11;0.50;;;0.50;;
80175;SDS011;75462;42.122;24.736;2024-03-23T03:38:37;0.45;;;0.45;;
80175;SDS011;75462;42.122;24.736;2024-03-23T03:41:05;0.50;;;0.50;;
80175;SDS011;75462;42.122;24.736;2024-03-23T03:43:31;0.40;;;0.40;;
80175;SDS011;75462;42.122;24.736;2024-03-23T03:45:59;0.50;;;0.50;;
80175;SDS011;75462;42.122;24.736;2024-03-23T03:48:25;0.50;;;0.50;;
80175;SDS011;75462;42.122;24.736;2024-03-23T03:50:52;0.50;;;0.50;;
80175;SDS011;75462;42.122;24.736;2024-03-23T03:53:18;0.50;;;0.50;;
80175;SDS011;75462;42.122;24.736;2024-03-23T03:55:44;0.50;;;0.50;;
80175;SDS011;75462;42.122;24.736;2024-03-23T03:58:10;0.50;;;0.50;;
80175;SDS011;75462;42.122;24.736;2024-03-23T04:00:36;0.50;;;0.50;;
80175;SDS011;75462;42.122;24.736;2024-03-23T04:03:02;0.50;;;0.50;;
80175;SDS011;75462;42.122;24.736;2024-03-23T04:05:28;0.50;;;0.50;;
80175;SDS011;75462;42.122;24.736;2024-03-23T04:07:54;0.50;;;0.50;;
80175;SDS011;75462;42.122;24.736;2024-03-23T04:10:20;0.50;;;0.50;;
80175;SDS011;75462;42.122;24.736;2024-03-23T04:12:47;0.50;;;0.50;;
80175;SDS011;75462;42.122;24.736;2024-03-23T04:15:13;0.40;;;0.40;;
80175;SDS011;75462;42.122;24.736;2024-03-23T04:17:39;0.50;;;0.50;;
80175;SDS011;75462;42.122;24.736;2024-03-23T04:20:07;0.40;;;0.40;;
80175;SDS011;75462;42.122;24.736;2024-03-23T04:22:36;0.50;;;0.50;;
80175;SDS011;75462;42.122;24.736;2024-03-23T04:25:05;0.52;;;0.52;;
80175;SDS011;75462;42.122;24.736;2024-03-23T04:27:38;0.50;;;0.50;;
80175;SDS011;75462;42.122;24.736;2024-03-23T04:30:05;0.50;;;0.50;;
80175;SDS011;75462;42.122;24.736;2024-03-23T04:32:39;0.60;;;0.60;;
80175;SDS011;75462;42.122;24.736;2024-03-23T04:35:05;0.50;;;0.50;;
80175;SDS011;75462;42.122;24.736;2024-03-23T04:37:31;0.50;;;0.50;;
80175;SDS011;75462;42.122;24.736;2024-03-23T04:39:59;0.55;;;0.55;;
80175;SDS011;75462;42.122;24.736;2024-03-23T04:42:26;0.50;;;0.50;;
80175;SDS011;75462;42.122;24.736;2024-03-23T04:44:52;0.50;;;0.50;;
80175;SDS011;75462;42.122;24.736;2024-03-23T04:47:18;0.60;;;0.60;;
80175;SDS011;75462;42.122;24.736;2024-03-23T04:49:44;0.40;;;0.40;;
80175;SDS011;75462;42.122;24.736;2024-03-23T04:52:09;0.60;;;0.60;;
80175;SDS011;75462;42.122;24.736;2024-03-23T04:54:35;0.60;;;0.60;;
80175;SDS011;75462;42.122;24.736;2024-03-23T04:57:01;0.50;;;0.50;;
80175;SDS011;75462;42.122;24.736;2024-03-23T04:59:26;0.60;;;0.60;;
80175;SDS011;75462;42.122;24.736;2024-03-23T05:01:52;0.60;;;0.60;;
80175;SDS011;75462;42.122;24.736;2024-03-23T05:04:17;0.50;;;0.50;;
80175;SDS011;75462;42.122;24.736;2024-03-23T05:06:43;0.57;;;0.57;;
80175;SDS011;75462;42.122;24.736;2024-03-23T05:09:09;0.60;;;0.60;;
80175;SDS011;75462;42.122;24.736;2024-03-23T05:11:37;0.60;;;0.60;;
80175;SDS011;75462;42.122;24.736;2024-03-23T05:14:10;0.50;;;0.50;;
80175;SDS011;75462;42.122;24.736;2024-03-23T05:16:39;0.40;;;0.40;;
80175;SDS011;75462;42.122;24.736;2024-03-23T05:19:05;0.50;;;0.50;;
80175;SDS011;75462;42.122;24.736;2024-03-23T05:21:30;0.50;;;0.50;;
80175;SDS011;75462;42.122;24.736;2024-03-23T05:23:56;0.40;;;0.40;;
80175;SDS011;75462;42.122;24.736;2024-03-23T05:26:22;0.50;;;0.50;;
80175;SDS011;75462;42.122;24.736;2024-03-23T05:28:48;0.50;;;0.50;;
80175;SDS011;75462;42.122;24.736;2024-03-23T05:31:22;0.50;;;0.50;;
80175;SDS011;75462;42.122;24.736;2024-03-23T05:33:49;0.50;;;0.50;;
80175;SDS011;75462;42.122;24.736;2024-03-23T05:36:14;0.50;;;0.50;;
80175;SDS011;75462;42.122;24.736;2024-03-23T05:38:40;0.50;;;0.50;;
80175;SDS011;75462;42.122;24.736;2024-03-23T05:41:06;0.50;;;0.50;;
80175;SDS011;75462;42.122;24.736;2024-03-23T05:43:31;0.50;;;0.50;;
80175;SDS011;75462;42.122;24.736;2024-03-23T05:45:57;0.50;;;0.50;;
80175;SDS011;75462;42.122;24.736;2024-03-23T05:48:25;0.50;;;0.50;;
80175;SDS011;75462;42.122;24.736;2024-03-23T05:50:51;0.50;;;0.50;;
80175;SDS011;75462;42.122;24.736;2024-03-23T05:53:18;0.50;;;0.50;;
80175;SDS011;75462;42.122;24.736;2024-03-23T05:55:47;0.50;;;0.50;;
80175;SDS011;75462;42.122;24.736;2024-03-23T05:58:14;0.40;;;0.40;;
80175;SDS011;75462;42.122;24.736;2024-03-23T06:00:41;0.50;;;0.50;;
80175;SDS011;75462;42.122;24.736;2024-03-23T06:03:10;0.50;;;0.50;;
80175;SDS011;75462;42.122;24.736;2024-03-23T06:05:39;0.50;;;0.50;;
80175;SDS011;75462;42.122;24.736;2024-03-23T06:08:05;0.50;;;0.50;;
80175;SDS011;75462;42.122;24.736;2024-03-23T06:10:31;0.50;;;0.50;;
80175;SDS011;75462;42.122;24.736;2024-03-23T06:12:57;0.50;;;0.50;;
80175;SDS011;75462;42.122;24.736;2024-03-23T06:15:24;0.50;;;0.50;;
80175;SDS011;75462;42.122;24.736;2024-03-23T06:17:51;0.40;;;0.40;;
80175;SDS011;75462;42.122;24.736;2024-03-23T06:20:17;0.50;;;0.50;;
80175;SDS011;75462;42.122;24.736;2024-03-23T06:22:42;0.50;;;0.50;;
80175;SDS011;75462;42.122;24.736;2024-03-23T06:25:08;0.43;;;0.43;;
80175;SDS011;75462;42.122;24.736;2024-03-23T06:27:34;0.50;;;0.50;;
80175;SDS011;75462;42.122;24.736;2024-03-23T06:30:00;0.50;;;0.50;;
80175;SDS011;75462;42.122;24.736;2024-03-23T06:32:27;0.50;;;0.50;;
80175;SDS011;75462;42.122;24.736;2024-03-23T06:34:53;0.40;;;0.40;;
80175;SDS011;75462;42.122;24.736;2024-03-23T06:37:20;0.43;;;0.43;;
80175;SDS011;75462;42.122;24.736;2024-03-23T06:39:46;0.40;;;0.40;;
80175;SDS011;75462;42.122;24.736;2024-03-23T06:42:12;0.40;;;0.40;;
80175;SDS011;75462;42.122;24.736;2024-03-23T06:44:38;0.40;;;0.40;;
80175;SDS011;75462;42.122;24.736;2024-03-23T06:47:04;0.40;;;0.40;;
80175;SDS011;75462;42.122;24.736;2024-03-23T06:49:30;0.40;;;0.40;;
80175;SDS011;75462;42.122;24.736;2024-03-23T06:51:55;0.43;;;0.43;;
80175;SDS011;75462;42.122;24.736;2024-03-23T06:54:21;0.50;;;0.50;;
80175;SDS011;75462;42.122;24.736;2024-03-23T06:56:47;0.47;;;0.47;;
80175;SDS011;75462;42.122;24.736;2024-03-23T06:59:13;0.40;;;0.40;;
80175;SDS011;75462;42.122;24.736;2024-03-23T07:01:38;0.47;;;0.47;;
80175;SDS011;75462;42.122;24.736;2024-03-23T07:04:04;0.50;;;0.50;;
80175;SDS011;75462;42.122;24.736;2024-03-23T07:06:30;0.40;;;0.40;;
80175;SDS011;75462;42.122;24.736;2024-03-23T07:08:56;0.45;;;0.45;;
80175;SDS011;75462;42.122;24.736;2024-03-23T07:11:22;0.40;;;0.40;;
80175;SDS011;75462;42.122;24.736;2024-03-23T07:13:51;0.40;;;0.40;;
80175;SDS011;75462;42.122;24.736;2024-03-23T07:16:19;0.45;;;0.45;;
80175;SDS011;75462;42.122;24.736;2024-03-23T07:18:45;0.50;;;0.50;;
80175;SDS011;75462;42.122;24.736;2024-03-23T07:21:11;0.40;;;0.40;;
80175;SDS011;75462;42.122;24.736;2024-03-23T07:23:37;0.43;;;0.43;;
80175;SDS011;75462;42.122;24.736;2024-03-23T07:26:03;0.40;;;0.40;;
80175;SDS011;75462;42.122;24.736;2024-03-23T07:28:30;0.40;;;0.40;;
80175;SDS011;75462;42.122;24.736;2024-03-23T07:33:35;0.40;;;0.40;;
80175;SDS011;75462;42.122;24.736;2024-03-23T07:36:05;0.40;;;0.40;;
80175;SDS011;75462;42.122;24.736;2024-03-23T07:38:31;0.40;;;0.40;;
80175;SDS011;75462;42.122;24.736;2024-03-23T07:41:03;0.40;;;0.40;;
80175;SDS011;75462;42.122;24.736;2024-03-23T07:43:32;0.40;;;0.40;;
80175;SDS011;75462;42.122;24.736;2024-03-23T07:45:58;0.30;;;0.30;;
80175;SDS011;75462;42.122;24.736;2024-03-23T07:48:24;0.30;;;0.30;;
80175;SDS011;75462;42.122;24.736;2024-03-23T07:53:25;0.30;;;0.30;;
80175;SDS011;75462;42.122;24.736;2024-03-23T07:55:58;0.30;;;0.30;;
80175;SDS011;75462;42.122;24.736;2024-03-23T07:58:26;0.30;;;0.30;;
80175;SDS011;75462;42.122;24.736;2024-03-23T08:00:52;0.30;;;0.30;;
80175;SDS011;75462;42.122;24.736;2024-03-23T08:03:18;0.30;;;0.30;;
80175;SDS011;75462;42.122;24.736;2024-03-23T08:05:44;0.30;;;0.30;;
80175;SDS011;75462;42.122;24.736;2024-03-23T08:08:10;0.20;;;0.20;;
80175;SDS011;75462;42.122;24.736;2024-03-23T08:10:37;0.30;;;0.30;;
80175;SDS011;75462;42.122;24.736;2024-03-23T08:13:11;0.30;;;0.30;;
80175;SDS011;75462;42.122;24.736;2024-03-23T08:15:37;0.30;;;0.30;;
80175;SDS011;75462;42.122;24.736;2024-03-23T08:18:03;0.30;;;0.30;;
80175;SDS011;75462;42.122;24.736;2024-03-23T08:20:29;0.30;;;0.30;;
80175;SDS011;75462;42.122;24.736;2024-03-23T08:22:55;0.30;;;0.30;;
80175;SDS011;75462;42.122;24.736;2024-03-23T08:25:21;0.30;;;0.30;;
80175;SDS011;75462;42.122;24.736;2024-03-23T08:27:47;0.30;;;0.30;;
80175;SDS011;75462;42.122;24.736;2024-03-23T08:30:12;0.40;;;0.40;;
80175;SDS011;75462;42.122;24.736;2024-03-23T08:32:38;0.30;;;0.30;;
80175;SDS011;75462;42.122;24.736;2024-03-23T08:35:04;0.30;;;0.30;;
80175;SDS011;75462;42.122;24.736;2024-03-23T08:37:30;0.30;;;0.30;;
80175;SDS011;75462;42.122;24.736;2024-03-23T08:39:56;0.30;;;0.30;;
80175;SDS011;75462;42.122;24.736;2024-03-23T08:42:21;0.30;;;0.30;;
80175;SDS011;75462;42.122;24.736;2024-03-23T08:44:47;0.30;;;0.30;;
80175;SDS011;75462;42.122;24.736;2024-03-23T08:47:16;0.30;;;0.30;;
80175;SDS011;75462;42.122;24.736;2024-03-23T08:49:41;0.30;;;0.30;;
80175;SDS011;75462;42.122;24.736;2024-03-23T08:52:08;0.30;;;0.30;;
80175;SDS011;75462;42.122;24.736;2024-03-23T08:54:34;0.20;;;0.20;;
80175;SDS011;75462;42.122;24.736;2024-03-23T08:56:59;0.20;;;0.20;;
80175;SDS011;75462;42.122;24.736;2024-03-23T08:59:25;0.30;;;0.30;;
80175;SDS011;75462;42.122;24.736;2024-03-23T09:01:51;0.22;;;0.22;;
80175;SDS011;75462;42.122;24.736;2024-03-23T09:04:17;0.30;;;0.30;;
80175;SDS011;75462;42.122;24.736;2024-03-23T09:06:43;0.22;;;0.22;;
80175;SDS011;75462;42.122;24.736;2024-03-23T09:09:09;0.20;;;0.20;;
80175;SDS011;75462;42.122;24.736;2024-03-23T09:11:34;0.30;;;0.30;;
80175;SDS011;75462;42.122;24.736;2024-03-23T09:14:00;0.20;;;0.20;;
80175;SDS011;75462;42.122;24.736;2024-03-23T09:16:26;0.20;;;0.20;;
80175;SDS011;75462;42.122;24.736;2024-03-23T09:18:52;0.20;;;0.20;;
80175;SDS011;75462;42.122;24.736;2024-03-23T09:21:18;0.20;;;0.20;;
80175;SDS011;75462;42.122;24.736;2024-03-23T09:23:44;0.30;;;0.30;;
80175;SDS011;75462;42.122;24.736;2024-03-23T09:26:10;0.20;;;0.20;;
80175;SDS011;75462;42.122;24.736;2024-03-23T09:28:35;0.30;;;0.30;;
80175;SDS011;75462;42.122;24.736;2024-03-23T09:31:05;0.25;;;0.25;;
80175;SDS011;75462;42.122;24.736;2024-03-23T09:33:40;0.30;;;0.30;;
80175;SDS011;75462;42.122;24.736;2024-03-23T09:36:07;0.20;;;0.20;;
80175;SDS011;75462;42.122;24.736;2024-03-23T09:38:33;0.20;;;0.20;;
80175;SDS011;75462;42.122;24.736;2024-03-23T09:40:59;0.20;;;0.20;;
80175;SDS011;75462;42.122;24.736;2024-03-23T09:43:25;0.30;;;0.30;;
80175;SDS011;75462;42.122;24.736;2024-03-23T09:45:52;0.20;;;0.20;;
80175;SDS011;75462;42.122;24.736;2024-03-23T09:48:18;0.20;;;0.20;;
80175;SDS011;75462;42.122;24.736;2024-03-23T09:50:45;0.20;;;0.20;;
80175;SDS011;75462;42.122;24.736;2024-03-23T09:53:12;0.30;;;0.30;;
80175;SDS011;75462;42.122;24.736;2024-03-23T09:55:41;0.20;;;0.20;;
80175;SDS011;75462;42.122;24.736;2024-03-23T09:58:12;0.20;;;0.20;;
80175;SDS011;75462;42.122;24.736;2024-03-23T10:00:38;0.20;;;0.20;;
80175;SDS011;75462;42.122;24.736;2024-03-23T10:03:04;0.20;;;0.20;;
80175;SDS011;75462;42.122;24.736;2024-03-23T10:05:31;0.20;;;0.20;;
80175;SDS011;75462;42.122;24.736;2024-03-23T10:08:00;0.20;;;0.20;;
80175;SDS011;75462;42.122;24.736;2024-03-23T10:10:43;0.20;;;0.20;;
80175;SDS011;75462;42.122;24.736;2024-03-23T10:13:10;0.20;;;0.20;;
80175;SDS011;75462;42.122;24.736;2024-03-23T10:15:38;0.20;;;0.20;;
80175;SDS011;75462;42.122;24.736;2024-03-23T10:18:19;0.28;;;0.28;;
80175;SDS011;75462;42.122;24.736;2024-03-23T10:20:54;0.30;;;0.30;;
80175;SDS011;75462;42.122;24.736;2024-03-23T10:23:35;0.20;;;0.20;;
80175;SDS011;75462;42.122;24.736;2024-03-23T10:26:20;0.20;;;0.20;;
80175;SDS011;75462;42.122;24.736;2024-03-23T10:31:26;0.20;;;0.20;;
80175;SDS011;75462;42.122;24.736;2024-03-23T10:33:53;0.20;;;0.20;;
80175;SDS011;75462;42.122;24.736;2024-03-23T10:36:20;0.15;;;0.15;;
80175;SDS011;75462;42.122;24.736;2024-03-23T10:38:47;0.20;;;0.20;;
80175;SDS011;75462;42.122;24.736;2024-03-23T10:41:14;0.15;;;0.15;;
80175;SDS011;75462;42.122;24.736;2024-03-23T10:43:40;0.20;;;0.20;;
80175;SDS011;75462;42.122;24.736;2024-03-23T10:46:09;0.20;;;0.20;;
80175;SDS011;75462;42.122;24.736;2024-03-23T10:48:35;0.15;;;0.15;;
80175;SDS011;75462;42.122;24.736;2024-03-23T10:51:01;0.10;;;0.10;;
80175;SDS011;75462;42.122;24.736;2024-03-23T10:53:27;0.20;;;0.20;;
80175;SDS011;75462;42.122;24.736;2024-03-23T10:55:54;0.10;;;0.10;;
80175;SDS011;75462;42.122;24.736;2024-03-23T11:01:12;0.20;;;0.20;;
80175;SDS011;75462;42.122;24.736;2024-03-23T11:03:38;0.20;;;0.20;;
80175;SDS011;75462;42.122;24.736;2024-03-23T11:06:09;0.20;;;0.20;;
80175;SDS011;75462;42.122;24.736;2024-03-23T11:08:38;0.20;;;0.20;;
80175;SDS011;75462;42.122;24.736;2024-03-23T11:11:19;0.10;;;0.10;;
80175;SDS011;75462;42.122;24.736;2024-03-23T11:13:53;0.10;;;0.10;;
80175;SDS011;75462;42.122;24.736;2024-03-23T11:22:00;0.17;;;0.17;;
80175;SDS011;75462;42.122;24.736;2024-03-23T11:24:26;0.10;;;0.10;;
80175;SDS011;75462;42.122;24.736;2024-03-23T11:26:52;0.10;;;0.10;;
80175;SDS011;75462;42.122;24.736;2024-03-23T11:29:18;0.10;;;0.10;;
80175;SDS011;75462;42.122;24.736;2024-03-23T11:34:13;0.10;;;0.10;;
80175;SDS011;75462;42.122;24.736;2024-03-23T11:36:41;0.10;;;0.10;;
80175;SDS011;75462;42.122;24.736;2024-03-23T11:39:14;0.10;;;0.10;;
80175;SDS011;75462;42.122;24.736;2024-03-23T11:44:20;0.20;;;0.20;;
80175;SDS011;75462;42.122;24.736;2024-03-23T11:47:07;0.10;;;0.10;;
80175;SDS011;75462;42.122;24.736;2024-03-23T11:49:33;0.10;;;0.10;;
80175;SDS011;75462;42.122;24.736;2024-03-23T11:52:05;0.20;;;0.20;;
80175;SDS011;75462;42.122;24.736;2024-03-23T11:54:31;0.10;;;0.10;;
80175;SDS011;75462;42.122;24.736;2024-03-23T11:56:58;0.10;;;0.10;;
80175;SDS011;75462;42.122;24.736;2024-03-23T11:59:41;0.10;;;0.10;;
80175;SDS011;75462;42.122;24.736;2024-03-23T12:02:07;0.08;;;0.08;;
80175;SDS011;75462;42.122;24.736;2024-03-23T12:04:37;0.00;;;0.00;;
80175;SDS011;75462;42.122;24.736;2024-03-23T12:07:13;0.00;;;0.00;;
80175;SDS011;75462;42.122;24.736;2024-03-23T12:09:46;0.00;;;0.00;;
80175;SDS011;75462;42.122;24.736;2024-03-23T12:12:26;0.00;;;0.00;;
80175;SDS011;75462;42.122;24.736;2024-03-23T12:15:05;0.00;;;0.00;;
80175;SDS011;75462;42.122;24.736;2024-03-23T12:17:33;0.10;;;0.10;;
80175;SDS011;75462;42.122;24.736;2024-03-23T12:20:00;0.00;;;0.00;;
80175;SDS011;75462;42.122;24.736;2024-03-23T12:22:26;0.00;;;0.00;;
80175;SDS011;75462;42.122;24.736;2024-03-23T12:24:52;0.00;;;0.00;;
80175;SDS011;75462;42.122;24.736;2024-03-23T12:27:17;0.00;;;0.00;;
80175;SDS011;75462;42.122;24.736;2024-03-23T12:29:43;0.00;;;0.00;;
80175;SDS011;75462;42.122;24.736;2024-03-23T12:32:11;0.00;;;0.00;;
80175;SDS011;75462;42.122;24.736;2024-03-23T12:34:37;0.00;;;0.00;;
80175;SDS011;75462;42.122;24.736;2024-03-23T12:37:03;0.00;;;0.00;;
80175;SDS011;75462;42.122;24.736;2024-03-23T12:39:29;0.00;;;0.00;;
80175;SDS011;75462;42.122;24.736;2024-03-23T12:41:55;0.00;;;0.00;;
80175;SDS011;75462;42.122;24.736;2024-03-23T12:44:21;0.00;;;0.00;;
80175;SDS011;75462;42.122;24.736;2024-03-23T12:46:47;0.00;;;0.00;;
80175;SDS011;75462;42.122;24.736;2024-03-23T12:49:13;0.00;;;0.00;;
80175;SDS011;75462;42.122;24.736;2024-03-23T12:51:39;0.00;;;0.00;;
80175;SDS011;75462;42.122;24.736;2024-03-23T12:54:11;0.00;;;0.00;;
80175;SDS011;75462;42.122;24.736;2024-03-23T12:56:36;0.00;;;0.00;;
80175;SDS011;75462;42.122;24.736;2024-03-23T12:59:02;0.00;;;0.00;;
80175;SDS011;75462;42.122;24.736;2024-03-23T13:01:28;0.00;;;0.00;;
80175;SDS011;75462;42.122;24.736;2024-03-23T13:03:53;0.00;;;0.00;;
80175;SDS011;75462;42.122;24.736;2024-03-23T13:06:19;0.00;;;0.00;;
80175;SDS011;75462;42.122;24.736;2024-03-23T13:08:45;0.00;;;0.00;;
80175;SDS011;75462;42.122;24.736;2024-03-23T13:11:11;0.00;;;0.00;;
80175;SDS011;75462;42.122;24.736;2024-03-23T13:13:38;0.00;;;0.00;;
80175;SDS011;75462;42.122;24.736;2024-03-23T13:16:04;0.00;;;0.00;;
80175;SDS011;75462;42.122;24.736;2024-03-23T13:18:30;0.00;;;0.00;;
80175;SDS011;75462;42.122;24.736;2024-03-23T13:20:57;0.00;;;0.00;;
80175;SDS011;75462;42.122;24.736;2024-03-23T13:23:23;0.00;;;0.00;;
80175;SDS011;75462;42.122;24.736;2024-03-23T13:25:55;0.00;;;0.00;;
80175;SDS011;75462;42.122;24.736;2024-03-23T13:28:21;0.00;;;0.00;;
80175;SDS011;75462;42.122;24.736;2024-03-23T13:30:54;0.00;;;0.00;;
80175;SDS011;75462;42.122;24.736;2024-03-23T13:33:21;0.00;;;0.00;;
80175;SDS011;75462;42.122;24.736;2024-03-23T13:35:54;0.00;;;0.00;;
80175;SDS011;75462;42.122;24.736;2024-03-23T13:38:23;0.00;;;0.00;;
80175;SDS011;75462;42.122;24.736;2024-03-23T13:43:18;0.00;;;0.00;;
80175;SDS011;75462;42.122;24.736;2024-03-23T13:45:44;0.00;;;0.00;;
80175;SDS011;75462;42.122;24.736;2024-03-23T13:48:11;0.00;;;0.00;;
80175;SDS011;75462;42.122;24.736;2024-03-23T13:50:36;0.10;;;0.10;;
80175;SDS011;75462;42.122;24.736;2024-03-23T13:53:02;0.00;;;0.00;;
80175;SDS011;75462;42.122;24.736;2024-03-23T13:55:28;0.00;;;0.00;;
80175;SDS011;75462;42.122;24.736;2024-03-23T13:57:54;0.00;;;0.00;;
80175;SDS011;75462;42.122;24.736;2024-03-23T14:00:19;0.00;;;0.00;;
80175;SDS011;75462;42.122;24.736;2024-03-23T14:02:45;0.00;;;0.00;;
80175;SDS011;75462;42.122;24.736;2024-03-23T14:05:11;0.05;;;0.05;;
80175;SDS011;75462;42.122;24.736;2024-03-23T14:07:37;0.00;;;0.00;;
80175;SDS011;75462;42.122;24.736;2024-03-23T14:10:03;0.00;;;0.00;;
80175;SDS011;75462;42.122;24.736;2024-03-23T14:12:31;0.00;;;0.00;;
80175;SDS011;75462;42.122;24.736;2024-03-23T14:14:57;0.00;;;0.00;;
80175;SDS011;75462;42.122;24.736;2024-03-23T14:17:23;0.00;;;0.00;;
80175;SDS011;75462;42.122;24.736;2024-03-23T14:19:48;0.00;;;0.00;;
80175;SDS011;75462;42.122;24.736;2024-03-23T14:22:15;0.00;;;0.00;;
80175;SDS011;75462;42.122;24.736;2024-03-23T14:24:44;0.00;;;0.00;;
80175;SDS011;75462;42.122;24.736;2024-03-23T14:27:10;0.00;;;0.00;;
80175;SDS011;75462;42.122;24.736;2024-03-23T14:29:36;0.05;;;0.05;;
80175;SDS011;75462;42.122;24.736;2024-03-23T14:32:01;0.00;;;0.00;;
80175;SDS011;75462;42.122;24.736;2024-03-23T14:34:27;0.00;;;0.00;;
80175;SDS011;75462;42.122;24.736;2024-03-23T14:36:53;0.00;;;0.00;;
80175;SDS011;75462;42.122;24.736;2024-03-23T14:39:22;0.00;;;0.00;;
80175;SDS011;75462;42.122;24.736;2024-03-23T14:41:50;0.00;;;0.00;;
80175;SDS011;75462;42.122;24.736;2024-03-23T14:44:15;0.00;;;0.00;;
80175;SDS011;75462;42.122;24.736;2024-03-23T14:46:41;0.00;;;0.00;;
80175;SDS011;75462;42.122;24.736;2024-03-23T14:49:08;0.00;;;0.00;;
80175;SDS011;75462;42.122;24.736;2024-03-23T14:51:33;0.00;;;0.00;;
80175;SDS011;75462;42.122;24.736;2024-03-23T14:53:59;0.00;;;0.00;;
80175;SDS011;75462;42.122;24.736;2024-03-23T14:56:25;0.00;;;0.00;;
80175;SDS011;75462;42.122;24.736;2024-03-23T14:58:53;0.00;;;0.00;;
80175;SDS011;75462;42.122;24.736;2024-03-23T15:01:20;0.00;;;0.00;;
80175;SDS011;75462;42.122;24.736;2024-03-23T15:03:46;0.00;;;0.00;;
80175;SDS011;75462;42.122;24.736;2024-03-23T15:06:12;0.00;;;0.00;;
80175;SDS011;75462;42.122;24.736;2024-03-23T15:08:38;0.00;;;0.00;;
80175;SDS011;75462;42.122;24.736;2024-03-23T15:11:05;0.00;;;0.00;;
80175;SDS011;75462;42.122;24.736;2024-03-23T15:13:35;0.08;;;0.08;;
80175;SDS011;75462;42.122;24.736;2024-03-23T15:16:01;0.00;;;0.00;;
80175;SDS011;75462;42.122;24.736;2024-03-23T15:18:30;0.00;;;0.00;;
80175;SDS011;75462;42.122;24.736;2024-03-23T15:21:01;0.00;;;0.00;;
80175;SDS011;75462;42.122;24.736;2024-03-23T15:23:28;0.00;;;0.00;;
80175;SDS011;75462;42.122;24.736;2024-03-23T15:25:55;0.00;;;0.00;;
80175;SDS011;75462;42.122;24.736;2024-03-23T15:28:21;0.00;;;0.00;;
80175;SDS011;75462;42.122;24.736;2024-03-23T15:30:48;0.00;;;0.00;;
80175;SDS011;75462;42.122;24.736;2024-03-23T15:33:14;0.00;;;0.00;;
80175;SDS011;75462;42.122;24.736;2024-03-23T15:35:40;0.00;;;0.00;;
80175;SDS011;75462;42.122;24.736;2024-03-23T15:38:06;0.00;;;0.00;;
80175;SDS011;75462;42.122;24.736;2024-03-23T15:40:32;0.00;;;0.00;;
80175;SDS011;75462;42.122;24.736;2024-03-23T15:42:57;0.00;;;0.00;;
80175;SDS011;75462;42.122;24.736;2024-03-23T15:45:23;0.10;;;0.10;;
80175;SDS011;75462;42.122;24.736;2024-03-23T15:47:49;0.00;;;0.00;;
80175;SDS011;75462;42.122;24.736;2024-03-23T15:50:14;0.10;;;0.10;;